Flight Track Log - Related Links

Times and Time Zones

All times are in EDT time to prevent confusion due to time zone crossing. See the SWA1635 flight status page for this flight to view local times or setup timezone preferences in your user account.

Time Position Orientation Groundspeed Altitude Reporting Facility
EDT Latitude Longitude Course Direction KTS MPH feet Rate Location/Type
Mon 12:38:09 PM 32.1008 -110.9228 152° Southeast 183 211 3,200  Level Albuquerque Center
Mon 12:38:57 PM 32.0594 -110.8964 152° Southeast 215 247 4,600 2,039 Climbing Albuquerque Center
Mon 12:39:52 PM 32.0056 -110.9286 207° Southwest 250 288 6,700 1,922 Climbing Albuquerque Center
Mon 12:40:40 PM 32.0094 -110.9797 275° West 303 349 7,900 1,800 Climbing Albuquerque Center
Mon 12:41:42 PM 32.0542 -111.0556 305° West 283 326 10,000 1,984 Climbing Albuquerque Center
Mon 12:42:44 PM 32.1181 -111.1678 304° West 333 383 12,000 2,077 Climbing Albuquerque Center
Mon 12:43:00 PM 32.1303 -111.1944 298° West 358 412 12,700 2,226 Climbing Albuquerque Center
Mon 12:43:46 PM 32.1747 -111.2672 306° West 361 415 14,300 2,111 Climbing Albuquerque Center
Mon 12:44:48 PM 32.2339 -111.3708 304° West 375 432 16,500 2,032 Climbing Albuquerque Center
Mon 12:45:50 PM 32.2942 -111.4781 304° West 387 445 18,500 2,081 Climbing Albuquerque Center
Mon 12:46:52 PM 32.3647 -111.6047 303° West 395 455 20,800 1,742 Climbing Albuquerque Center
Mon 12:47:54 PM 32.4189 -111.6992 304° West 404 465 22,100 1,548 Climbing Albuquerque Center
Mon 12:48:56 PM 32.4967 -111.8375 304° West 418 481 24,000 919 Climbing Albuquerque Center
Mon 12:49:58 PM 32.5628 -111.9575 303° West 428 493 24,000  Level Albuquerque Center
Mon 12:51:00 PM 32.6297 -112.0781 303° West 434 499 24,000  Level Albuquerque Center
Mon 12:52:02 PM 32.6969 -112.2008 303° West 440 506 24,000  Level Albuquerque Center
Mon 12:53:04 PM 32.7733 -112.3392 303° West 444 511 24,000  Level Albuquerque Center
Mon 12:54:07 PM 32.8397 -112.4608 303° West 443 510 24,000  Level Albuquerque Center
Mon 12:55:09 PM 32.9067 -112.5833 303° West 444 511 24,000  Level Albuquerque Center
Mon 12:56:11 PM 32.9769 -112.7025 305° West 447 514 24,000  Level Albuquerque Center
Mon 12:57:13 PM 33.0611 -112.8100 313° West 448 516 24,000  Level Albuquerque Center
Mon 12:58:15 PM 33.1589 -112.9414 312° West 444 511 24,000  Level Albuquerque Center
Mon 12:59:17 PM 33.2414 -113.0500 312° West 444 511 24,000  Level Albuquerque Center
Mon 01:00:19 PM 33.3231 -113.1597 312° West 444 511 24,000  Level Albuquerque Center
Mon 01:01:21 PM 33.4053 -113.2692 312° West 443 510 24,000  Level Albuquerque Center
Mon 01:02:23 PM 33.4878 -113.3800 312° West 446 513 24,000  Level Albuquerque Center
Mon 01:03:25 PM 33.5861 -113.5122 312° West 444 511 24,000  Level Albuquerque Center
Mon 01:04:27 PM 33.6644 -113.6172 312° West 444 511 24,000  Level Albuquerque Center
Mon 01:05:29 PM 33.7447 -113.7286 311° West 442 509 24,000  Level Albuquerque Center
Mon 01:06:31 PM 33.8178 -113.8483 306° West 443 510 24,000  Level Albuquerque Center
Mon 01:07:33 PM 33.8508 -113.9933 285° West 449 517 24,000  Level Albuquerque Center
Mon 01:08:35 PM 33.8767 -114.1708 280° West 449 517 24,000  Level Albuquerque Center
Mon 01:09:37 PM 33.9008 -114.3242 281° West 451 519 24,000  Level Albuquerque Center
Mon 01:10:39 PM 33.9222 -114.4714 280° West 449 517 24,000  Level Albuquerque Center
Mon 01:11:54 PM 33.9508 -114.6542 281° West 450 518 24,000  Level Los Angeles Center
Mon 01:12:56 PM 33.9728 -114.8008 280° West 449 517 24,000  Level Los Angeles Center
Mon 01:13:58 PM 33.9903 -114.9197 280° West 451 519 24,000  Level Los Angeles Center
Mon 01:15:00 PM 34.0169 -115.0961 280° West 449 517 24,000  Level Los Angeles Center
Mon 01:16:02 PM 34.0433 -115.2739 280° West 451 519 24,000  Level Los Angeles Center
Mon 01:17:04 PM 34.0592 -115.3925 279° West 452 520 24,000  Level Los Angeles Center
Mon 01:18:07 PM 34.0842 -115.5697 280° West 450 518 24,000  Level Los Angeles Center
Mon 01:19:09 PM 34.1056 -115.7172 280° West 450 518 24,000  Level Los Angeles Center
Mon 01:20:10 PM 34.1028 -115.8356 268° West 453 521 24,000  Level Los Angeles Center
Mon 01:21:13 PM 34.0717 -116.0419 260° West 448 516 24,000  Level Los Angeles Center
Mon 01:22:15 PM 34.0500 -116.1903 260° West 451 519 24,000  Level Los Angeles Center
Mon 01:23:29 PM 34.0281 -116.3375 260° West 450 518 24,000 -44 Level Los Angeles Center
Mon 01:24:32 PM 34.0017 -116.5150 260° West 450 518 23,900 -175 Descending Los Angeles Center
Mon 01:25:46 PM 33.9925 -116.6506 265° West 407 468 23,600 -926 Descending Los Angeles Center
Mon 01:26:48 PM 33.9786 -116.8183 264° West 362 417 21,800 -1,790 Descending Los Angeles Center
Mon 01:27:50 PM 33.9692 -116.9364 265° West 356 410 19,900 -1,940 Descending Los Angeles Center
Mon 01:29:01 PM 33.9500 -117.0833 261° West 340 391 17,500 -1,420 Descending Southern California TRACON
Mon 01:30:01 PM 33.9500 -117.1833 270° West 320 368 16,800 -1,700 Descending Southern California TRACON
Mon 01:31:01 PM 33.9667 -117.3000 280° West 329 379 14,100 -1,700 Descending Southern California TRACON
Mon 01:32:01 PM 34.0000 -117.4000 292° West 313 360 13,400 -850 Descending Southern California TRACON
Mon 01:33:01 PM 34.0167 -117.5000 281° West 294 338 12,400 -992 Descending Southern California TRACON
Mon 01:34:02 PM 34.0167 -117.6000 270° West 374 430 11,400 -942 Descending Southern California TRACON
Mon 01:35:02 PM 34.0333 -117.6833 284° West 310 357 10,500 -650 Descending Southern California TRACON
Mon 01:36:02 PM 34.0167 -117.7833 259° West 268 308 10,100 -800 Descending Southern California TRACON
Mon 01:37:02 PM 34.0000 -117.8667 256° West 274 315 8,900 -1,700 Descending Southern California TRACON
Mon 01:38:02 PM 34.0000 -117.9833 270° West 293 337 6,700 -1,250 Descending Southern California TRACON
Mon 01:39:02 PM 33.9833 -118.0500 253° West 228 262 6,400 -1,150 Descending Southern California TRACON
Mon 01:40:02 PM 33.9833 -118.1333 270° West 215 247 4,400 -1,653 Descending Southern California TRACON
Mon 01:40:40 PM 33.9775 -118.1592 255° West 215 247 3,700 -900 Descending Los Angeles Center
Mon 01:41:42 PM 33.9689 -118.2389 263° West 205 236 2,900 -919 Descending Los Angeles Center
Mon 01:42:44 PM 33.9625 -118.3000 263° West 195 224 1,800 -864 Descending Los Angeles Center
Mon 01:43:47 PM 33.9583 -118.3467 264° West 161 185 1,100 -657 Descending Los Angeles Center
Mon 01:45:01 PM 33.9533 -118.4022 264° West 146 168 300 -649 Descending Los Angeles Center
Mon 01:47:00 PM 33.9425 -118.4081 270° West  Level Estimated

Login

Don't have an account? Register now (free) for customized features, flight alerts, and more!